createdAt,value
2022-08-23T00:01:39.540Z,1.70
2022-08-23T00:04:11.605Z,3.15
2022-08-23T00:06:39.850Z,2.40
2022-08-23T00:09:07.880Z,2.45
2022-08-23T00:11:35.065Z,1.70
2022-08-23T00:14:14.196Z,1.85
2022-08-23T00:16:41.883Z,2.50
2022-08-23T00:19:13.167Z,2.33
2022-08-23T00:21:41.407Z,3.63
2022-08-23T00:24:11.747Z,2.45
2022-08-23T00:26:54.963Z,2.28
2022-08-23T00:29:30.968Z,1.92
2022-08-23T00:31:58.817Z,1.60
2022-08-23T00:34:26.478Z,2.28
2022-08-23T00:36:54.054Z,1.85
2022-08-23T00:39:22.122Z,1.70
2022-08-23T00:41:50.914Z,1.98
2022-08-23T00:44:46.791Z,1.65
2022-08-23T00:47:34.634Z,2.40
2022-08-23T00:50:30.131Z,1.70
2022-08-23T00:53:18.216Z,2.20
2022-08-23T00:55:47.954Z,1.60
2022-08-23T00:58:19.221Z,2.10
2022-08-23T01:00:50.172Z,2.33
2022-08-23T01:03:20.617Z,1.85
2022-08-23T01:06:03.777Z,3.20
2022-08-23T01:08:33.166Z,1.80
2022-08-23T01:11:11.433Z,2.15
2022-08-23T01:13:53.176Z,2.10
2022-08-23T01:16:29.233Z,1.60
2022-08-23T01:18:57.096Z,1.48
2022-08-23T01:21:43.651Z,2.95
2022-08-23T01:24:24.115Z,2.55
2022-08-23T01:27:01.089Z,2.58
2022-08-23T01:29:28.455Z,2.53
2022-08-23T01:31:56.682Z,2.47
2022-08-23T01:34:28.599Z,2.42
2022-08-23T01:36:57.944Z,2.75
2022-08-23T01:39:25.702Z,2.22
2022-08-23T01:41:52.991Z,1.83
2022-08-23T01:44:20.238Z,1.80
2022-08-23T01:46:48.221Z,2.40
2022-08-23T01:49:23.886Z,2.03
2022-08-23T01:51:51.521Z,1.98
2022-08-23T01:54:19.951Z,3.53
2022-08-23T01:56:48.024Z,2.03
2022-08-23T01:59:15.598Z,1.95
2022-08-23T02:01:49.044Z,1.70
2022-08-23T02:04:17.528Z,2.72
2022-08-23T02:06:44.705Z,1.77
2022-08-23T02:09:17.741Z,2.47
2022-08-23T02:11:47.055Z,1.70
2022-08-23T02:14:18.795Z,1.85
2022-08-23T02:17:03.582Z,2.08
2022-08-23T02:19:37.420Z,2.08
2022-08-23T02:22:07.509Z,1.48
2022-08-23T02:24:35.701Z,1.70
2022-08-23T02:27:05.875Z,1.30
2022-08-23T02:29:39.795Z,1.50
2022-08-23T02:32:11.837Z,1.98
2022-08-23T02:34:39.958Z,1.92
2022-08-23T02:37:09.387Z,1.65
2022-08-23T02:39:38.766Z,1.90
2022-08-23T02:42:07.383Z,2.05
2022-08-23T02:44:38.514Z,1.67
2022-08-23T02:47:07.950Z,1.52
2022-08-23T02:49:36.714Z,1.48
2022-08-23T02:52:06.753Z,1.60
2022-08-23T02:54:35.948Z,1.20
2022-08-23T02:57:03.569Z,1.45
2022-08-23T02:59:31.628Z,1.05
2022-08-23T03:01:59.601Z,1.50
2022-08-23T03:04:36.297Z,1.30
2022-08-23T03:07:04.375Z,1.38
2022-08-23T03:09:31.741Z,1.15
2022-08-23T03:11:58.962Z,1.55
2022-08-23T03:14:27.716Z,1.80
2022-08-23T03:16:56.095Z,1.40
2022-08-23T03:19:26.520Z,1.38
2022-08-23T03:21:53.692Z,1.30
2022-08-23T03:24:22.441Z,1.23
2022-08-23T03:26:49.761Z,1.30
2022-08-23T03:29:18.958Z,1.30
2022-08-23T03:32:01.756Z,1.85
2022-08-23T03:34:33.282Z,1.83
2022-08-23T03:37:01.112Z,1.10
2022-08-23T03:39:29.021Z,1.25
2022-08-23T03:41:58.681Z,1.55
2022-08-23T03:44:29.013Z,2.10
2022-08-23T03:46:57.173Z,1.92
2022-08-23T03:49:26.586Z,2.10
2022-08-23T03:51:56.255Z,1.83
2022-08-23T03:54:23.617Z,1.40
2022-08-23T03:57:03.129Z,1.77
2022-08-23T03:59:35.401Z,2.10
2022-08-23T04:02:05.158Z,1.95
2022-08-23T04:04:32.903Z,1.65
2022-08-23T04:07:20.962Z,1.58
2022-08-23T04:09:54.971Z,1.30
2022-08-23T04:12:25.370Z,1.30
2022-08-23T04:14:53.831Z,1.83
2022-08-23T04:17:22.532Z,1.60
2022-08-23T04:19:51.199Z,1.30
2022-08-23T04:22:20.754Z,1.80
2022-08-23T04:24:48.496Z,1.70
2022-08-23T04:27:16.769Z,1.60
2022-08-23T04:29:45.247Z,1.20
2022-08-23T04:32:13.082Z,2.35
2022-08-23T04:34:45.551Z,2.25
2022-08-23T04:37:19.177Z,2.33
2022-08-23T04:40:05.500Z,2.35
2022-08-23T04:42:40.905Z,1.85
2022-08-23T04:45:08.950Z,2.40
2022-08-23T04:47:41.487Z,2.65
2022-08-23T04:50:10.425Z,2.22
2022-08-23T04:52:53.585Z,1.90
2022-08-23T04:55:20.822Z,2.33
2022-08-23T04:57:52.262Z,3.47
2022-08-23T05:00:27.813Z,3.05
2022-08-23T05:02:57.291Z,3.17
2022-08-23T05:05:27.352Z,2.63
2022-08-23T05:07:55.484Z,2.33
2022-08-23T05:10:22.990Z,1.80
2022-08-23T05:12:53.200Z,1.90
2022-08-23T05:15:22.020Z,3.05
2022-08-23T05:17:57.385Z,2.42
2022-08-23T05:20:25.006Z,3.67
2022-08-23T05:22:52.454Z,1.98
2022-08-23T05:25:45.206Z,2.00
2022-08-23T05:28:13.542Z,2.55
2022-08-23T05:30:41.873Z,1.85
2022-08-23T05:33:17.280Z,2.38
2022-08-23T05:35:44.577Z,1.95
2022-08-23T05:38:12.101Z,1.70
2022-08-23T05:40:40.308Z,2.22
2022-08-23T05:43:10.898Z,2.25
2022-08-23T05:45:38.246Z,2.00
2022-08-23T05:48:06.253Z,2.25
2022-08-23T05:50:42.954Z,2.20
2022-08-23T05:53:10.908Z,1.95
2022-08-23T05:55:40.601Z,2.40
2022-08-23T05:58:18.302Z,2.63
2022-08-23T06:00:46.669Z,2.28
2022-08-23T06:03:14.627Z,1.80
2022-08-23T06:05:42.399Z,2.00
2022-08-23T06:08:11.219Z,1.52
2022-08-23T06:10:42.217Z,2.00
2022-08-23T06:13:24.932Z,2.55
2022-08-23T06:15:53.315Z,2.55
2022-08-23T06:18:20.994Z,2.10
2022-08-23T06:20:49.399Z,2.55
2022-08-23T06:23:23.258Z,2.47
2022-08-23T06:25:50.518Z,2.00
2022-08-23T06:28:20.110Z,2.35
2022-08-23T06:30:55.783Z,3.20
2022-08-23T06:33:31.100Z,2.53
2022-08-23T06:36:17.583Z,2.28
2022-08-23T06:39:16.376Z,2.00
2022-08-23T06:45:04.447Z,2.42
2022-08-23T06:47:40.589Z,2.13
2022-08-23T06:50:09.549Z,2.40
2022-08-23T06:52:55.349Z,2.83
2022-08-23T06:55:37.185Z,3.03
2022-08-23T06:58:22.446Z,2.58
2022-08-23T07:01:45.267Z,2.95
2022-08-23T07:04:27.168Z,2.60
2022-08-23T07:07:23.737Z,2.60
2022-08-23T07:09:53.040Z,2.28
2022-08-23T07:12:21.051Z,3.28
2022-08-23T07:14:49.418Z,3.00
2022-08-23T07:17:16.915Z,3.30
2022-08-23T07:19:44.485Z,3.30
2022-08-23T07:22:15.626Z,2.78
2022-08-23T07:24:43.617Z,2.50
2022-08-23T07:27:12.486Z,1.85
2022-08-23T07:30:08.536Z,1.80
2022-08-23T07:32:37.922Z,1.77
2022-08-23T07:35:21.630Z,2.20
2022-08-23T07:37:50.588Z,1.58
2022-08-23T07:40:20.522Z,1.90
2022-08-23T07:42:52.720Z,1.80
2022-08-23T07:45:23.075Z,2.33
2022-08-23T07:47:54.724Z,2.10
2022-08-23T07:50:24.617Z,2.22
2022-08-23T07:52:58.880Z,2.13
2022-08-23T07:55:26.441Z,2.20
2022-08-23T07:58:00.263Z,1.95
2022-08-23T08:00:35.441Z,2.75
2022-08-23T08:03:22.782Z,2.20
2022-08-23T08:06:12.870Z,1.80
2022-08-23T08:08:43.046Z,2.00
2022-08-23T08:11:12.386Z,2.65
2022-08-23T08:13:42.466Z,2.08
2022-08-23T08:16:19.210Z,1.65
2022-08-23T08:18:46.586Z,1.55
2022-08-23T08:21:32.226Z,1.27
2022-08-23T08:24:17.407Z,1.23
2022-08-23T08:26:49.861Z,1.63
2022-08-23T08:29:18.338Z,1.13
2022-08-23T08:31:51.299Z,2.17
2022-08-23T08:34:21.642Z,1.60
2022-08-23T08:36:53.827Z,1.92
2022-08-23T08:39:26.759Z,1.52
2022-08-23T08:42:35.935Z,1.55
2022-08-23T08:45:26.419Z,1.98
2022-08-23T08:48:02.227Z,2.10
2022-08-23T08:50:43.339Z,1.92
2022-08-23T08:53:22.610Z,2.30
2022-08-23T08:56:37.235Z,1.38
2022-08-23T08:59:49.834Z,1.63
2022-08-23T09:02:32.781Z,2.00
2022-08-23T09:05:17.003Z,1.40
2022-08-23T09:08:05.044Z,1.70
2022-08-23T09:10:58.328Z,1.67
2022-08-23T09:13:46.371Z,1.35
2022-08-23T09:16:46.333Z,1.15
2022-08-23T09:19:14.037Z,1.67
2022-08-23T09:22:10.003Z,1.52
2022-08-23T09:24:37.664Z,1.15
2022-08-23T09:27:11.945Z,1.67
2022-08-23T09:29:51.305Z,1.80
2022-08-23T09:32:34.912Z,2.20
2022-08-23T09:35:13.825Z,1.58
2022-08-23T09:38:03.204Z,1.10
2022-08-23T09:40:44.326Z,1.50
2022-08-23T09:43:17.300Z,1.35
2022-08-23T09:45:51.119Z,1.33
2022-08-23T09:48:44.315Z,1.33
2022-08-23T09:51:34.941Z,1.00
2022-08-23T09:54:24.703Z,1.33
2022-08-23T09:56:57.585Z,0.90
2022-08-23T09:59:26.867Z,0.70
2022-08-23T10:02:02.117Z,0.70
2022-08-23T10:04:41.858Z,0.80
2022-08-23T10:07:33.363Z,0.73
2022-08-23T10:10:27.035Z,0.55
2022-08-23T10:12:59.626Z,0.80
2022-08-23T10:16:04.436Z,0.68
2022-08-23T10:19:08.149Z,0.90
2022-08-23T10:21:47.348Z,0.90
2022-08-23T10:24:24.236Z,0.95
2022-08-23T10:27:26.758Z,0.95
2022-08-23T10:30:04.493Z,1.58
2022-08-23T10:33:02.673Z,1.00
2022-08-23T10:35:55.976Z,1.25
2022-08-23T10:38:23.271Z,0.90
2022-08-23T10:41:40.481Z,1.00
2022-08-23T10:44:46.539Z,1.10
2022-08-23T10:47:33.969Z,0.93
2022-08-23T10:50:07.619Z,1.00
2022-08-23T10:52:53.818Z,1.15
2022-08-23T10:55:43.950Z,0.82
2022-08-23T10:58:29.290Z,1.10
2022-08-23T11:01:00.716Z,0.98
2022-08-23T11:03:37.937Z,0.80
2022-08-23T11:06:30.208Z,0.82
2022-08-23T11:09:28.266Z,1.33
2022-08-23T11:12:19.226Z,1.77
2022-08-23T11:14:59.046Z,1.27
2022-08-23T11:17:52.226Z,1.05
2022-08-23T11:20:51.525Z,1.20
2022-08-23T11:23:41.694Z,1.15
2022-08-23T11:26:31.603Z,1.00
2022-08-23T11:29:08.204Z,1.50
2022-08-23T11:32:03.584Z,1.23
2022-08-23T11:34:47.108Z,1.02
2022-08-23T11:37:22.098Z,1.40
2022-08-23T11:40:01.773Z,1.27
2022-08-23T11:42:39.080Z,1.25
2022-08-23T11:45:27.947Z,1.40
2022-08-23T11:48:15.394Z,1.10
2022-08-23T11:50:57.548Z,1.52
2022-08-23T11:53:43.935Z,1.30
2022-08-23T11:56:38.682Z,1.25
2022-08-23T11:59:41.559Z,1.40
2022-08-23T12:02:41.155Z,1.10
2022-08-23T12:05:32.700Z,1.55
2022-08-23T12:08:03.004Z,1.10
2022-08-23T12:10:42.726Z,1.33
2022-08-23T12:13:19.693Z,1.25
2022-08-23T12:16:06.049Z,1.02
2022-08-23T12:18:47.777Z,1.20
2022-08-23T12:21:21.202Z,1.20
2022-08-23T12:23:54.449Z,1.08
2022-08-23T12:26:40.542Z,1.15
2022-08-23T12:29:27.667Z,1.05
2022-08-23T12:32:33.418Z,0.98
2022-08-23T12:35:00.777Z,0.90
2022-08-23T12:37:37.604Z,1.20
2022-08-23T12:40:11.892Z,0.90
2022-08-23T12:42:40.104Z,1.20
2022-08-23T12:45:22.714Z,0.80
2022-08-23T12:47:59.249Z,0.82
2022-08-23T12:50:34.051Z,0.70
2022-08-23T12:53:08.210Z,1.02
2022-08-23T12:55:42.706Z,0.95
2022-08-23T12:58:11.099Z,1.00
2022-08-23T13:01:00.093Z,1.33
2022-08-23T13:03:40.081Z,1.20
2022-08-23T13:06:12.280Z,1.38
2022-08-23T13:08:47.106Z,0.93
2022-08-23T13:11:18.638Z,1.52
2022-08-23T13:13:46.498Z,1.27
2022-08-23T13:16:29.970Z,1.40
2022-08-23T13:19:22.752Z,1.08
2022-08-23T13:22:19.110Z,0.95
2022-08-23T13:25:29.149Z,1.20
2022-08-23T13:28:25.013Z,1.40
2022-08-23T13:31:08.551Z,1.00
2022-08-23T13:33:37.279Z,1.40
2022-08-23T13:36:16.350Z,1.50
2022-08-23T13:38:45.293Z,1.88
2022-08-23T13:41:30.958Z,1.67
2022-08-23T13:43:58.643Z,1.30
2022-08-23T13:46:33.642Z,1.08
2022-08-23T13:49:15.645Z,1.20
2022-08-23T13:52:45.987Z,1.40
2022-08-23T13:54:52.977Z,1.20
2022-08-23T13:57:22.014Z,1.75
2022-08-23T13:59:58.994Z,1.45
2022-08-23T14:02:27.114Z,1.48
2022-08-23T14:04:54.471Z,1.63
2022-08-23T14:07:22.083Z,1.80
2022-08-23T14:09:54.421Z,1.10
2022-08-23T14:12:27.653Z,1.50
2022-08-23T14:14:59.570Z,1.48
2022-08-23T14:17:28.074Z,1.23
2022-08-23T14:20:33.050Z,1.10
2022-08-23T14:22:43.120Z,0.88
2022-08-23T14:25:12.648Z,1.20
2022-08-23T14:27:42.202Z,1.20
2022-08-23T14:30:29.534Z,1.35
2022-08-23T14:32:57.909Z,0.95
2022-08-23T14:35:25.674Z,1.08
2022-08-23T14:38:08.596Z,0.95
2022-08-23T14:40:36.964Z,1.27
2022-08-23T14:43:06.053Z,1.20
2022-08-23T14:45:33.445Z,1.00
2022-08-23T14:48:00.872Z,1.55
2022-08-23T14:50:28.606Z,1.25
2022-08-23T14:52:57.669Z,1.20
2022-08-23T14:55:25.504Z,1.40
2022-08-23T14:57:52.916Z,0.85
2022-08-23T15:00:20.459Z,1.00
2022-08-23T15:02:48.992Z,1.30
2022-08-23T15:05:16.962Z,1.00
2022-08-23T15:07:44.588Z,1.38
2022-08-23T15:10:49.789Z,1.23
2022-08-23T15:13:17.440Z,1.20
2022-08-23T15:15:48.784Z,1.27
2022-08-23T15:18:17.569Z,1.20
2022-08-23T15:20:45.800Z,1.77
2022-08-23T15:23:13.726Z,1.20
2022-08-23T15:25:43.489Z,1.30
2022-08-23T15:28:13.873Z,1.48
2022-08-23T15:30:42.028Z,1.27
2022-08-23T15:33:10.714Z,1.30
2022-08-23T15:35:45.807Z,1.50
2022-08-23T15:38:16.382Z,1.45
2022-08-23T15:40:43.770Z,1.20
2022-08-23T15:43:11.095Z,1.00
2022-08-23T15:45:39.121Z,1.02
2022-08-23T15:48:26.651Z,1.23
2022-08-23T15:50:54.856Z,1.10
2022-08-23T15:53:22.808Z,1.15
2022-08-23T15:55:51.517Z,1.10
2022-08-23T15:58:25.073Z,1.13
2022-08-23T16:00:54.107Z,1.23
2022-08-23T16:03:22.563Z,1.17
2022-08-23T16:05:53.950Z,1.00
2022-08-23T16:08:23.615Z,1.00
2022-08-23T16:10:51.651Z,1.13
2022-08-23T16:13:19.036Z,1.00
2022-08-23T16:15:46.397Z,1.20
2022-08-23T16:18:14.421Z,0.90
2022-08-23T16:20:42.541Z,0.73
2022-08-23T16:23:10.552Z,0.98
2022-08-23T16:25:38.194Z,1.20
2022-08-23T16:28:06.097Z,1.00
2022-08-23T16:30:33.677Z,0.90
2022-08-23T16:33:01.515Z,0.98
2022-08-23T16:35:29.150Z,1.60
2022-08-23T16:37:56.500Z,1.13
2022-08-23T16:40:24.163Z,1.08
2022-08-23T16:42:52.880Z,0.82
2022-08-23T16:45:26.064Z,1.13
2022-08-23T16:47:54.075Z,1.17
2022-08-23T16:50:22.696Z,1.25
2022-08-23T16:52:50.303Z,0.82
2022-08-23T16:55:17.716Z,1.33
2022-08-23T16:57:45.631Z,1.10
2022-08-23T17:00:14.177Z,1.00
2022-08-23T17:02:44.037Z,0.98
2022-08-23T17:05:15.704Z,1.30
2022-08-23T17:07:43.312Z,1.08
2022-08-23T17:10:12.737Z,1.05
2022-08-23T17:12:46.891Z,0.82
2022-08-23T17:15:19.822Z,1.05
2022-08-23T17:17:48.803Z,0.88
2022-08-23T17:20:17.405Z,1.10
2022-08-23T17:22:44.846Z,1.00
2022-08-23T17:25:15.207Z,0.80
2022-08-23T17:27:46.249Z,1.10
2022-08-23T17:30:16.925Z,0.90
2022-08-23T17:32:47.816Z,0.82
2022-08-23T17:35:21.553Z,1.00
2022-08-23T17:37:49.691Z,1.10
2022-08-23T17:40:21.588Z,1.00
2022-08-23T17:42:50.031Z,0.90
2022-08-23T17:45:17.852Z,1.05
2022-08-23T17:47:46.504Z,1.58
2022-08-23T17:50:15.392Z,1.48
2022-08-23T17:52:43.339Z,1.08
2022-08-23T17:55:11.166Z,1.27
2022-08-23T17:57:40.867Z,0.80
2022-08-23T18:00:09.150Z,1.00
2022-08-23T18:02:38.198Z,0.90
2022-08-23T18:05:07.247Z,0.93
2022-08-23T18:07:34.702Z,0.90
2022-08-23T18:10:02.619Z,1.00
2022-08-23T18:12:30.122Z,0.98
2022-08-23T18:14:57.504Z,0.90
2022-08-23T18:17:25.258Z,0.90
2022-08-23T18:19:53.320Z,1.50
2022-08-23T18:22:20.772Z,0.82
2022-08-23T18:24:48.023Z,0.98
2022-08-23T18:27:33.851Z,0.88
2022-08-23T18:30:01.421Z,1.10
2022-08-23T18:32:28.846Z,0.93
2022-08-23T18:34:56.309Z,0.93
2022-08-23T18:37:23.576Z,0.80
2022-08-23T18:39:51.105Z,0.80
2022-08-23T18:42:18.451Z,0.98
2022-08-23T18:44:45.730Z,1.00
2022-08-23T18:47:13.121Z,0.80
2022-08-23T18:49:40.597Z,1.27
2022-08-23T18:52:08.303Z,0.93
2022-08-23T18:54:37.178Z,0.80
2022-08-23T18:57:04.698Z,0.80
2022-08-23T18:59:32.699Z,1.00
2022-08-23T19:02:02.277Z,1.13
2022-08-23T19:04:31.221Z,0.70
2022-08-23T19:07:02.083Z,0.80
2022-08-23T19:09:30.005Z,0.70
2022-08-23T19:12:00.549Z,0.85
2022-08-23T19:14:29.643Z,0.90
2022-08-23T19:16:57.008Z,0.93
2022-08-23T19:19:24.495Z,0.85
2022-08-23T19:21:51.913Z,0.90
2022-08-23T19:24:19.462Z,0.82
2022-08-23T19:26:49.854Z,0.63
2022-08-23T19:29:20.690Z,0.63
2022-08-23T19:31:51.144Z,0.90
2022-08-23T19:34:20.870Z,0.90
2022-08-23T19:36:56.745Z,1.00
2022-08-23T19:39:28.378Z,0.90
2022-08-23T19:41:55.668Z,0.55
2022-08-23T19:44:26.168Z,0.70
2022-08-23T19:46:55.977Z,0.90
2022-08-23T19:49:23.480Z,1.10
2022-08-23T19:51:50.926Z,1.10
2022-08-23T19:54:18.090Z,1.15
2022-08-23T19:56:50.399Z,1.08
2022-08-23T19:59:24.675Z,1.00
2022-08-23T20:01:56.065Z,0.98
2022-08-23T20:04:25.293Z,1.45
2022-08-23T20:06:53.346Z,1.00
2022-08-23T20:09:22.537Z,1.17
2022-08-23T20:11:52.591Z,1.17
2022-08-23T20:14:22.086Z,1.25
2022-08-23T20:16:50.285Z,0.80
2022-08-23T20:19:18.278Z,0.70
2022-08-23T20:21:45.626Z,1.00
2022-08-23T20:24:14.601Z,0.88
2022-08-23T20:26:48.096Z,1.00
2022-08-23T20:29:18.929Z,0.90
2022-08-23T20:31:54.288Z,0.80
2022-08-23T20:34:23.174Z,0.82
2022-08-23T20:36:56.239Z,0.90
2022-08-23T20:39:24.881Z,0.70
2022-08-23T20:41:53.424Z,0.70
2022-08-23T20:44:22.248Z,0.57
2022-08-23T20:46:54.000Z,0.80
2022-08-23T20:49:23.730Z,1.10
2022-08-23T20:51:51.282Z,0.90
2022-08-23T20:54:19.828Z,1.00
2022-08-23T20:56:51.342Z,0.80
2022-08-23T20:59:19.238Z,0.80
2022-08-23T21:01:46.794Z,1.08
2022-08-23T21:04:14.396Z,1.42
2022-08-23T21:06:46.113Z,1.05
2022-08-23T21:09:19.371Z,0.90
2022-08-23T21:11:48.500Z,1.08
2022-08-23T21:14:17.283Z,0.90
2022-08-23T21:16:49.284Z,1.13
2022-08-23T21:19:17.284Z,1.17
2022-08-23T21:21:44.743Z,1.33
2022-08-23T21:24:12.934Z,1.00
2022-08-23T21:26:40.348Z,1.00
2022-08-23T21:29:08.494Z,1.63
2022-08-23T21:31:36.568Z,1.30
2022-08-23T21:34:04.509Z,1.23
2022-08-23T21:36:31.918Z,1.00
2022-08-23T21:38:59.150Z,1.00
2022-08-23T21:41:28.217Z,1.17
2022-08-23T21:43:55.459Z,1.10
2022-08-23T21:46:22.934Z,0.70
2022-08-23T21:48:50.454Z,1.15
2022-08-23T21:51:17.679Z,0.93
2022-08-23T21:53:44.881Z,1.00
2022-08-23T21:56:12.119Z,1.23
2022-08-23T21:58:39.819Z,1.00
2022-08-23T22:01:09.109Z,1.20
2022-08-23T22:03:36.491Z,1.00
2022-08-23T22:06:04.461Z,1.50
2022-08-23T22:08:32.141Z,1.30
2022-08-23T22:11:06.324Z,1.40
2022-08-23T22:13:35.633Z,1.20
2022-08-23T22:16:03.335Z,1.08
2022-08-23T22:18:31.783Z,1.10
2022-08-23T22:21:00.443Z,1.00
2022-08-23T22:23:30.266Z,1.30
2022-08-23T22:26:02.290Z,1.20
2022-08-23T22:28:31.277Z,1.80
2022-08-23T22:31:01.458Z,1.30
2022-08-23T22:33:29.982Z,1.30
2022-08-23T22:36:05.757Z,1.27
2022-08-23T22:38:33.125Z,1.23
2022-08-23T22:41:00.631Z,1.10
2022-08-23T22:43:28.469Z,0.98
2022-08-23T22:46:01.810Z,0.88
2022-08-23T22:48:31.608Z,1.42
2022-08-23T22:51:14.381Z,1.30
2022-08-23T22:53:45.367Z,1.00
2022-08-23T22:56:16.848Z,1.17
2022-08-23T22:58:45.454Z,1.00
2022-08-23T23:01:20.682Z,1.00
2022-08-23T23:03:49.695Z,1.08
2022-08-23T23:06:19.586Z,1.17
2022-08-23T23:08:47.116Z,1.38
2022-08-23T23:11:16.410Z,1.17
2022-08-23T23:13:43.852Z,1.20
2022-08-23T23:16:14.735Z,1.17
2022-08-23T23:19:03.730Z,1.35
2022-08-23T23:21:41.496Z,1.20
2022-08-23T23:24:13.464Z,1.20
2022-08-23T23:26:41.096Z,1.00
2022-08-23T23:29:08.406Z,1.10
2022-08-23T23:31:36.630Z,1.08
2022-08-23T23:34:04.334Z,0.90
2022-08-23T23:36:31.530Z,0.80
2022-08-23T23:38:59.151Z,0.80
2022-08-23T23:41:26.323Z,0.93
2022-08-23T23:43:53.547Z,1.17
2022-08-23T23:46:20.830Z,1.10
2022-08-23T23:48:49.350Z,0.80
2022-08-23T23:51:20.271Z,1.00
2022-08-23T23:53:47.947Z,1.10
2022-08-23T23:56:16.624Z,1.33
2022-08-23T23:58:45.048Z,1.48
